createdAt,value
2022-11-08T00:00:08.102Z,12.40
2022-11-08T00:03:10.064Z,14.00
2022-11-08T00:06:14.084Z,12.90
2022-11-08T00:09:14.411Z,13.00
2022-11-08T00:12:14.942Z,12.90
2022-11-08T00:17:38.733Z,17.30
2022-11-08T00:20:20.527Z,13.80
2022-11-08T00:23:02.321Z,14.60
2022-11-08T00:25:44.115Z,15.70
2022-11-08T00:28:25.911Z,14.20
2022-11-08T00:31:08.314Z,12.10
2022-11-08T00:33:50.107Z,12.50
2022-11-08T00:36:31.901Z,13.00
2022-11-08T00:39:13.694Z,12.20
2022-11-08T00:41:55.418Z,10.70
2022-11-08T00:44:38.406Z,13.20
2022-11-08T00:47:20.098Z,11.60
2022-11-08T00:50:01.900Z,12.80
2022-11-08T00:52:43.685Z,13.60
2022-11-08T00:55:25.581Z,13.50
2022-11-08T00:58:07.374Z,12.80
2022-11-08T01:00:49.202Z,13.00
2022-11-08T01:03:31.063Z,13.20
2022-11-08T01:06:14.699Z,14.40
2022-11-08T01:08:57.107Z,12.70
2022-11-08T01:11:40.134Z,12.80
2022-11-08T01:14:21.925Z,10.60
2022-11-08T01:17:03.715Z,13.20
2022-11-08T01:19:45.508Z,13.70
2022-11-08T01:22:27.201Z,13.00
2022-11-08T01:25:09.506Z,13.60
2022-11-08T01:27:51.402Z,12.40
2022-11-08T01:30:37.646Z,12.20
2022-11-08T01:33:19.392Z,13.00
2022-11-08T01:36:01.193Z,15.10
2022-11-08T01:38:43.285Z,15.80
2022-11-08T01:41:26.819Z,14.30
2022-11-08T01:44:16.264Z,14.90
2022-11-08T01:46:58.293Z,13.60
2022-11-08T01:49:46.348Z,14.90
2022-11-08T01:52:33.870Z,14.00
2022-11-08T01:55:22.002Z,12.70
2022-11-08T01:58:10.793Z,11.60
2022-11-08T02:00:53.440Z,12.50
2022-11-08T02:03:36.288Z,12.40
2022-11-08T02:06:18.861Z,13.70
2022-11-08T02:09:03.972Z,8.70
2022-11-08T02:11:48.285Z,12.50
2022-11-08T02:14:31.038Z,11.50
2022-11-08T02:17:12.935Z,12.90
2022-11-08T02:19:54.728Z,12.20
2022-11-08T02:22:45.533Z,10.60
2022-11-08T02:25:27.429Z,10.60
2022-11-08T02:28:09.222Z,12.30
2022-11-08T02:30:50.915Z,11.60
2022-11-08T02:33:33.424Z,13.10
2022-11-08T02:36:21.595Z,13.30
2022-11-08T02:39:03.768Z,15.10
2022-11-08T02:41:45.579Z,15.00
2022-11-08T02:44:27.333Z,15.50
2022-11-08T02:47:09.250Z,13.10
2022-11-08T02:49:51.351Z,14.40
2022-11-08T02:52:33.044Z,12.30
2022-11-08T02:55:14.835Z,13.10
2022-11-08T02:57:57.556Z,12.60
2022-11-08T03:00:40.070Z,11.70
2022-11-08T03:03:21.854Z,11.00
2022-11-08T03:06:03.752Z,11.00
2022-11-08T03:08:45.439Z,11.70
2022-11-08T03:11:27.952Z,10.80
2022-11-08T03:14:09.743Z,11.30
2022-11-08T03:16:51.433Z,11.70
2022-11-08T03:19:33.226Z,9.00
2022-11-08T03:22:15.738Z,12.30
2022-11-08T03:24:57.534Z,12.40
2022-11-08T03:27:39.530Z,12.00
2022-11-08T03:30:21.834Z,13.20
2022-11-08T03:33:04.241Z,10.50
2022-11-08T03:35:46.034Z,12.00
2022-11-08T03:38:27.831Z,12.40
2022-11-08T03:41:09.521Z,11.40
2022-11-08T03:43:51.313Z,12.40
2022-11-08T03:46:33.105Z,11.60
2022-11-08T03:49:14.898Z,12.10
2022-11-08T03:51:56.591Z,10.70
2022-11-08T03:54:38.383Z,10.20
2022-11-08T03:57:20.180Z,12.10
2022-11-08T04:00:01.912Z,11.70
2022-11-08T04:02:55.153Z,10.70
2022-11-08T04:05:36.923Z,11.90
2022-11-08T04:08:18.865Z,10.30
2022-11-08T04:11:19.555Z,11.00
2022-11-08T04:14:20.293Z,11.20
2022-11-08T04:20:02.463Z,11.60
2022-11-08T04:22:44.207Z,11.70
2022-11-08T04:25:27.313Z,11.80
2022-11-08T04:28:11.787Z,12.30
2022-11-08T04:30:59.218Z,11.60
2022-11-08T04:33:41.520Z,9.80
2022-11-08T04:36:23.311Z,12.90
2022-11-08T04:39:05.014Z,11.20
2022-11-08T04:41:46.797Z,10.90
2022-11-08T04:44:28.463Z,10.60
2022-11-08T04:47:10.383Z,11.30
2022-11-08T04:49:52.073Z,10.00
2022-11-08T04:52:33.765Z,10.00
2022-11-08T04:55:15.557Z,11.30
2022-11-08T04:57:59.195Z,11.30
2022-11-08T05:00:40.885Z,7.30
2022-11-08T05:03:22.679Z,10.60
2022-11-08T05:06:07.440Z,11.20
2022-11-08T05:08:49.953Z,18.60
2022-11-08T05:11:31.745Z,28.80
2022-11-08T05:14:13.640Z,57.10
2022-11-08T05:16:55.472Z,31.70
2022-11-08T05:19:55.865Z,30.70
2022-11-08T05:22:56.602Z,21.90
2022-11-08T05:28:22.134Z,11.80
2022-11-08T05:31:04.371Z,12.50
2022-11-08T05:33:46.438Z,12.00
2022-11-08T05:36:28.950Z,12.30
2022-11-08T05:39:10.740Z,11.70
2022-11-08T05:41:52.435Z,12.20
2022-11-08T05:44:34.226Z,12.40
2022-11-08T05:47:16.019Z,11.10
2022-11-08T05:49:58.018Z,12.50
2022-11-08T05:52:40.321Z,11.90
2022-11-08T05:55:22.218Z,12.40
2022-11-08T05:58:04.319Z,12.10
2022-11-08T06:00:46.009Z,12.50
2022-11-08T06:03:28.529Z,12.10
2022-11-08T06:06:16.354Z,12.60
2022-11-08T06:08:58.150Z,12.60
2022-11-08T06:11:40.043Z,12.30
2022-11-08T06:14:21.939Z,13.80
2022-11-08T06:17:03.732Z,12.60
2022-11-08T06:19:45.730Z,13.60
2022-11-08T06:22:31.657Z,12.00
2022-11-08T06:25:13.413Z,12.50
2022-11-08T06:27:55.207Z,13.50
2022-11-08T06:30:37.000Z,15.00
2022-11-08T06:33:20.717Z,13.90
2022-11-08T06:36:03.255Z,15.20
2022-11-08T06:38:45.041Z,13.20
2022-11-08T06:41:28.050Z,13.90
2022-11-08T06:44:09.858Z,12.90
2022-11-08T06:46:51.651Z,13.70
2022-11-08T06:49:33.400Z,13.70
2022-11-08T06:52:15.136Z,15.00
2022-11-08T06:54:56.931Z,16.30
2022-11-08T06:57:38.655Z,13.70
2022-11-08T07:00:20.834Z,13.30
2022-11-08T07:03:04.089Z,11.80
2022-11-08T07:05:46.051Z,12.60
2022-11-08T07:08:27.841Z,14.00
2022-11-08T07:11:10.350Z,15.60
2022-11-08T07:13:52.041Z,14.70
2022-11-08T07:16:33.835Z,27.30
2022-11-08T07:19:15.729Z,27.50
2022-11-08T07:21:57.524Z,23.30
2022-11-08T07:24:39.317Z,27.80
2022-11-08T07:27:21.112Z,25.20
2022-11-08T07:30:04.030Z,19.60
2022-11-08T07:32:47.927Z,21.00
2022-11-08T07:35:30.792Z,20.80
2022-11-08T07:38:15.109Z,24.00
2022-11-08T07:41:02.479Z,23.50
2022-11-08T07:43:45.287Z,24.50
2022-11-08T07:46:32.200Z,27.50
2022-11-08T07:49:15.476Z,30.60
2022-11-08T07:51:58.038Z,21.70
2022-11-08T07:54:40.401Z,21.70
2022-11-08T07:57:23.677Z,19.10
2022-11-08T08:00:09.558Z,19.70
2022-11-08T08:02:59.556Z,17.30
2022-11-08T08:05:44.596Z,17.80
2022-11-08T08:08:27.848Z,22.30
2022-11-08T08:11:11.385Z,18.80
2022-11-08T08:13:56.618Z,16.30
2022-11-08T08:16:38.940Z,13.80
2022-11-08T08:19:20.650Z,20.90
2022-11-08T08:22:02.341Z,13.90
2022-11-08T08:24:44.136Z,12.00
2022-11-08T08:27:25.928Z,11.70
2022-11-08T08:30:08.438Z,11.40
2022-11-08T08:33:08.335Z,13.10
2022-11-08T08:35:54.249Z,11.60
2022-11-08T08:38:40.027Z,12.40
2022-11-08T08:41:27.101Z,23.10
2022-11-08T08:44:12.707Z,11.70
2022-11-08T08:46:55.857Z,12.60
2022-11-08T08:49:37.556Z,12.20
2022-11-08T08:52:19.649Z,13.40
2022-11-08T08:55:02.080Z,14.00
2022-11-08T08:57:52.417Z,14.40
2022-11-08T09:03:40.807Z,11.50
2022-11-08T09:06:24.829Z,12.60
2022-11-08T09:09:08.151Z,13.50
2022-11-08T09:11:52.759Z,13.00
2022-11-08T09:14:35.503Z,18.50
2022-11-08T09:17:17.917Z,12.60
2022-11-08T09:20:00.811Z,17.20
2022-11-08T09:22:43.965Z,13.90
2022-11-08T09:25:33.215Z,11.00
2022-11-08T09:28:17.108Z,15.10
2022-11-08T09:31:04.466Z,13.80
2022-11-08T09:33:50.689Z,13.80
2022-11-08T09:36:33.544Z,11.20
2022-11-08T09:39:16.592Z,12.40
2022-11-08T09:42:15.422Z,11.20
2022-11-08T09:45:13.632Z,10.30
2022-11-08T09:48:05.194Z,10.70
2022-11-08T09:50:49.449Z,11.70
2022-11-08T09:53:47.632Z,10.30
2022-11-08T09:56:35.974Z,10.30
2022-11-08T09:59:26.895Z,11.70
2022-11-08T10:02:27.272Z,12.10
2022-11-08T10:08:09.166Z,10.20
2022-11-08T10:11:08.519Z,15.90
2022-11-08T10:14:19.454Z,13.60
2022-11-08T10:17:31.525Z,14.90
2022-11-08T10:20:24.964Z,11.30
2022-11-08T10:23:12.696Z,10.90
2022-11-08T10:26:05.460Z,11.40
2022-11-08T10:29:16.070Z,12.20
2022-11-08T10:32:12.861Z,12.60
2022-11-08T10:35:02.845Z,10.50
2022-11-08T10:37:44.896Z,9.90
2022-11-08T10:40:37.696Z,12.00
2022-11-08T10:43:30.139Z,12.00
2022-11-08T10:46:26.683Z,11.30
2022-11-08T10:49:19.738Z,11.30
2022-11-08T10:52:18.937Z,11.00
2022-11-08T10:55:03.199Z,14.30
2022-11-08T10:57:48.674Z,21.60
2022-11-08T11:00:32.919Z,10.30
2022-11-08T11:03:14.543Z,131.80
2022-11-08T11:06:01.014Z,48.80
2022-11-08T11:08:54.173Z,9.40
2022-11-08T11:11:38.541Z,10.00
2022-11-08T11:14:23.697Z,8.40
2022-11-08T11:17:15.486Z,9.00
2022-11-08T11:19:58.138Z,11.10
2022-11-08T11:22:46.177Z,8.30
2022-11-08T11:25:28.722Z,9.20
2022-11-08T11:28:14.226Z,9.10
2022-11-08T11:31:15.232Z,7.60
2022-11-08T11:33:58.541Z,7.20
2022-11-08T11:36:40.438Z,8.10
2022-11-08T11:39:32.677Z,8.00
2022-11-08T11:48:24.546Z,6.50
2022-11-08T11:51:10.732Z,6.70
2022-11-08T11:53:52.739Z,7.90
2022-11-08T11:56:48.872Z,7.90
2022-11-08T12:00:08.550Z,7.70
2022-11-08T12:03:07.444Z,8.30
2022-11-08T12:06:12.925Z,8.20
2022-11-08T12:09:28.304Z,8.70
2022-11-08T12:12:48.877Z,7.70
2022-11-08T12:16:01.390Z,10.90
2022-11-08T12:18:57.328Z,8.60
2022-11-08T12:21:48.450Z,9.00
2022-11-08T12:24:44.018Z,10.60
2022-11-08T12:27:40.685Z,9.40
2022-11-08T12:30:32.241Z,16.80
2022-11-08T12:33:23.011Z,10.80
2022-11-08T12:36:13.510Z,9.10
2022-11-08T12:39:24.098Z,11.60
2022-11-08T12:42:05.767Z,10.30
2022-11-08T12:45:16.442Z,8.80
2022-11-08T12:48:06.832Z,10.00
2022-11-08T12:53:43.289Z,10.10
2022-11-08T12:56:38.839Z,8.50
2022-11-08T12:59:37.731Z,7.80
2022-11-08T13:02:26.767Z,8.60
2022-11-08T13:05:27.635Z,8.50
2022-11-08T13:08:35.438Z,9.40
2022-11-08T13:11:27.458Z,7.80
2022-11-08T13:14:18.041Z,15.10
2022-11-08T13:17:09.081Z,19.40
2022-11-08T13:20:00.647Z,25.10
2022-11-08T13:22:57.781Z,43.20
2022-11-08T13:25:41.561Z,36.60
2022-11-08T13:28:40.697Z,32.80
2022-11-08T13:31:33.349Z,27.90
2022-11-08T13:34:30.394Z,21.30
2022-11-08T13:37:27.650Z,18.70
2022-11-08T13:40:44.054Z,11.80
2022-11-08T13:43:31.480Z,9.30
2022-11-08T13:46:29.796Z,9.40
2022-11-08T13:49:20.053Z,11.00
2022-11-08T13:52:40.042Z,10.90
2022-11-08T13:55:43.749Z,13.70
2022-11-08T13:58:36.233Z,9.90
2022-11-08T14:01:18.403Z,9.20
2022-11-08T14:04:00.700Z,9.80
2022-11-08T14:07:12.559Z,11.80
2022-11-08T14:09:59.791Z,9.40
2022-11-08T14:12:47.787Z,9.10
2022-11-08T14:15:35.796Z,8.60
2022-11-08T14:18:20.460Z,9.50
2022-11-08T14:21:05.024Z,8.70
2022-11-08T14:23:51.024Z,10.40
2022-11-08T14:26:32.806Z,15.60
2022-11-08T14:29:17.665Z,11.20
2022-11-08T14:32:19.538Z,12.20
2022-11-08T14:35:33.886Z,11.80
2022-11-08T14:38:15.721Z,15.70
2022-11-08T14:41:03.102Z,18.40
2022-11-08T14:43:46.940Z,15.20
2022-11-08T14:46:32.222Z,11.40
2022-11-08T14:49:14.017Z,11.10
2022-11-08T14:52:14.371Z,10.80
2022-11-08T14:55:04.431Z,10.80
2022-11-08T14:57:47.260Z,11.40
2022-11-08T15:00:29.041Z,10.30
2022-11-08T15:03:16.240Z,9.90
2022-11-08T15:06:01.542Z,9.00
2022-11-08T15:08:49.239Z,8.80
2022-11-08T15:11:34.332Z,11.00
2022-11-08T15:14:21.702Z,8.70
2022-11-08T15:17:04.091Z,9.30
2022-11-08T15:19:46.886Z,9.90
2022-11-08T15:22:34.806Z,9.30
2022-11-08T15:25:43.447Z,9.70
2022-11-08T15:28:31.736Z,10.20
2022-11-08T15:31:14.147Z,9.50
2022-11-08T15:33:59.377Z,10.90
2022-11-08T15:36:41.197Z,10.50
2022-11-08T15:39:39.346Z,12.10
2022-11-08T15:42:23.615Z,12.10
2022-11-08T15:45:23.033Z,11.70
2022-11-08T15:48:29.266Z,13.20
2022-11-08T15:51:12.497Z,13.60
2022-11-08T15:53:54.289Z,11.50
2022-11-08T15:57:08.068Z,12.90
2022-11-08T15:59:54.024Z,15.10
2022-11-08T16:02:35.817Z,15.70
2022-11-08T16:05:20.148Z,13.60
2022-11-08T16:08:01.862Z,14.70
2022-11-08T16:10:45.191Z,15.50
2022-11-08T16:13:34.800Z,16.50
2022-11-08T16:16:18.221Z,14.90
2022-11-08T16:19:00.301Z,17.30
2022-11-08T16:21:41.991Z,15.10
2022-11-08T16:24:24.606Z,15.30
2022-11-08T16:27:07.113Z,16.40
2022-11-08T16:29:48.906Z,16.50
2022-11-08T16:32:30.597Z,17.40
2022-11-08T16:35:12.390Z,15.30
2022-11-08T16:37:54.490Z,15.00
2022-11-08T16:40:36.284Z,15.10
2022-11-08T16:43:18.077Z,15.40
2022-11-08T16:46:06.314Z,17.80
2022-11-08T16:48:54.401Z,18.00
2022-11-08T16:51:36.095Z,17.30
2022-11-08T16:54:21.494Z,17.90
2022-11-08T16:57:28.401Z,19.30
2022-11-08T17:00:05.909Z,18.00
2022-11-08T17:02:52.821Z,17.90
2022-11-08T17:05:34.613Z,18.50
2022-11-08T17:08:17.273Z,20.60
2022-11-08T17:10:59.533Z,18.00
2022-11-08T17:13:41.325Z,20.80
2022-11-08T17:16:23.322Z,19.00
2022-11-08T17:19:05.524Z,18.80
2022-11-08T17:21:47.321Z,17.90
2022-11-08T17:24:30.239Z,17.10
2022-11-08T17:27:12.032Z,16.30
2022-11-08T17:29:54.158Z,16.90
2022-11-08T17:32:37.085Z,18.40
2022-11-08T17:35:19.151Z,25.30
2022-11-08T17:38:01.769Z,23.70
2022-11-08T17:40:43.659Z,19.10
2022-11-08T17:43:25.453Z,19.20
2022-11-08T17:46:08.066Z,19.70
2022-11-08T17:48:49.961Z,18.80
2022-11-08T17:51:31.759Z,18.20
2022-11-08T17:54:13.445Z,21.10
2022-11-08T17:56:55.445Z,23.00
2022-11-08T17:59:37.390Z,21.30
2022-11-08T18:02:19.311Z,21.50
2022-11-08T18:05:05.948Z,24.40
2022-11-08T18:07:47.941Z,22.60
2022-11-08T18:10:29.942Z,14.00
2022-11-08T18:13:12.142Z,21.00
2022-11-08T18:15:53.939Z,24.20
2022-11-08T18:18:35.833Z,25.20
2022-11-08T18:21:19.263Z,26.90
2022-11-08T18:24:01.159Z,33.20
2022-11-08T18:26:43.060Z,29.30
2022-11-08T18:29:24.774Z,24.40
2022-11-08T18:32:06.643Z,22.10
2022-11-08T18:34:49.049Z,23.50
2022-11-08T18:37:30.843Z,22.80
2022-11-08T18:40:13.464Z,23.00
2022-11-08T18:42:55.248Z,25.60
2022-11-08T18:45:37.041Z,25.40
2022-11-08T18:48:18.836Z,24.20
2022-11-08T18:51:00.644Z,25.70
2022-11-08T18:53:43.147Z,24.20
2022-11-08T18:56:24.931Z,24.50
2022-11-08T18:59:06.829Z,24.10
2022-11-08T19:01:48.697Z,23.30
2022-11-08T19:04:30.721Z,26.30
2022-11-08T19:07:12.750Z,24.10
2022-11-08T19:09:54.513Z,26.30
2022-11-08T19:12:36.305Z,29.40
2022-11-08T19:15:18.510Z,29.00
2022-11-08T19:18:00.306Z,28.80
2022-11-08T19:20:42.302Z,26.90
2022-11-08T19:23:25.168Z,24.20
2022-11-08T19:26:10.497Z,27.40
2022-11-08T19:28:55.815Z,28.20
2022-11-08T19:31:39.202Z,27.30
2022-11-08T19:34:21.303Z,26.00
2022-11-08T19:37:03.505Z,27.50
2022-11-08T19:39:45.504Z,26.90
2022-11-08T19:42:27.400Z,25.30
2022-11-08T19:45:10.118Z,20.90
2022-11-08T19:47:53.349Z,26.10
2022-11-08T19:50:35.241Z,27.20
2022-11-08T19:53:17.030Z,27.30
2022-11-08T19:56:03.259Z,25.80
2022-11-08T19:58:45.736Z,26.90
2022-11-08T20:01:40.428Z,26.70
2022-11-08T20:04:22.327Z,27.90
2022-11-08T20:07:04.111Z,26.30
2022-11-08T20:09:47.143Z,26.70
2022-11-08T20:12:31.803Z,24.70
2022-11-08T20:15:14.215Z,27.20
2022-11-08T20:17:56.315Z,27.40
2022-11-08T20:20:40.629Z,25.60
2022-11-08T20:23:25.467Z,25.20
2022-11-08T20:26:08.655Z,27.70
2022-11-08T20:28:56.420Z,26.80
2022-11-08T20:31:42.282Z,28.70
2022-11-08T20:34:25.820Z,25.70
2022-11-08T20:37:08.015Z,28.30
2022-11-08T20:39:52.009Z,29.20
2022-11-08T20:42:34.571Z,28.80
2022-11-08T20:45:16.469Z,27.50
2022-11-08T20:47:58.362Z,28.90
2022-11-08T20:50:40.158Z,27.40
2022-11-08T20:53:21.951Z,27.60
2022-11-08T20:56:16.029Z,26.70
2022-11-08T20:58:58.238Z,28.70
2022-11-08T21:01:39.996Z,30.50
2022-11-08T21:04:22.023Z,28.80
2022-11-08T21:10:35.890Z,27.60
2022-11-08T21:13:10.757Z,28.90
2022-11-08T21:15:54.048Z,29.50
2022-11-08T21:18:37.788Z,29.00
2022-11-08T21:21:22.655Z,29.20
2022-11-08T21:24:04.674Z,31.00
2022-11-08T21:26:46.550Z,30.40
2022-11-08T21:29:29.672Z,29.30
2022-11-08T21:32:11.422Z,27.80
2022-11-08T21:34:53.155Z,28.20
2022-11-08T21:37:34.948Z,27.00
2022-11-08T21:40:17.049Z,26.40
2022-11-08T21:42:59.354Z,28.30
2022-11-08T21:45:41.781Z,27.90
2022-11-08T21:48:23.760Z,28.30
2022-11-08T21:51:36.262Z,26.40
2022-11-08T21:54:19.092Z,27.00
2022-11-08T21:57:00.883Z,25.40
2022-11-08T21:59:42.677Z,24.70
2022-11-08T22:02:24.473Z,23.70
2022-11-08T22:05:07.291Z,27.30
2022-11-08T22:07:49.183Z,23.90
2022-11-08T22:10:30.875Z,24.50
2022-11-08T22:13:12.978Z,25.40
2022-11-08T22:15:55.179Z,27.20
2022-11-08T22:18:58.721Z,24.90
2022-11-08T22:21:45.368Z,25.10
2022-11-08T22:24:31.072Z,25.90
2022-11-08T22:27:13.584Z,27.10
2022-11-08T22:29:55.274Z,25.80
2022-11-08T22:32:37.171Z,26.50
2022-11-08T22:35:19.475Z,24.30
2022-11-08T22:38:01.681Z,22.20
2022-11-08T22:40:46.090Z,27.00
2022-11-08T22:43:27.824Z,24.80
2022-11-08T22:46:10.130Z,24.60
2022-11-08T22:48:52.127Z,25.00
2022-11-08T22:51:34.023Z,23.30
2022-11-08T22:54:15.818Z,24.40
2022-11-08T22:56:57.917Z,23.60
2022-11-08T22:59:39.710Z,24.20
2022-11-08T23:02:21.536Z,23.40
2022-11-08T23:05:03.401Z,26.00
2022-11-08T23:07:45.193Z,25.70
2022-11-08T23:10:26.988Z,24.50
2022-11-08T23:13:27.216Z,24.70
2022-11-08T23:16:29.076Z,24.40
2022-11-08T23:19:35.445Z,24.30
2022-11-08T23:22:36.862Z,26.30
2022-11-08T23:25:18.591Z,23.90
2022-11-08T23:28:19.123Z,24.00
2022-11-08T23:31:22.627Z,25.20
2022-11-08T23:34:05.239Z,25.50
2022-11-08T23:36:47.032Z,25.80
2022-11-08T23:39:29.849Z,24.30
2022-11-08T23:42:30.383Z,23.60
2022-11-08T23:47:53.865Z,24.60
2022-11-08T23:50:35.683Z,26.10
2022-11-08T23:53:18.635Z,24.40
2022-11-08T23:56:00.781Z,26.50
2022-11-08T23:58:42.586Z,24.60
